createdAt,value
2022-09-03T00:00:18.868Z,100.00
2022-09-03T00:02:50.434Z,100.00
2022-09-03T00:05:23.733Z,100.00
2022-09-03T00:07:57.908Z,100.00
2022-09-03T00:10:31.427Z,100.00
2022-09-03T00:13:04.153Z,100.00
2022-09-03T00:15:33.889Z,100.00
2022-09-03T00:18:06.589Z,100.00
2022-09-03T00:20:41.869Z,100.00
2022-09-03T00:23:14.237Z,100.00
2022-09-03T00:25:45.874Z,100.00
2022-09-03T00:28:19.430Z,100.00
2022-09-03T00:30:51.757Z,100.00
2022-09-03T00:33:22.161Z,100.00
2022-09-03T00:35:57.846Z,100.00
2022-09-03T00:38:24.822Z,100.00
2022-09-03T00:41:04.491Z,100.00
2022-09-03T00:43:47.676Z,100.00
2022-09-03T00:46:23.734Z,100.00
2022-09-03T00:49:22.988Z,100.00
2022-09-03T00:52:02.233Z,100.00
2022-09-03T00:54:40.211Z,100.00
2022-09-03T00:57:29.813Z,100.00
2022-09-03T01:00:03.603Z,100.00
2022-09-03T01:02:43.014Z,100.00
2022-09-03T01:05:19.595Z,100.00
2022-09-03T01:07:55.065Z,100.00
2022-09-03T01:10:30.863Z,100.00
2022-09-03T01:13:08.314Z,100.00
2022-09-03T01:15:45.473Z,100.00
2022-09-03T01:18:23.172Z,100.00
2022-09-03T01:21:16.662Z,100.00
2022-09-03T01:24:11.977Z,100.00
2022-09-03T01:26:55.831Z,100.00
2022-09-03T01:29:34.836Z,100.00
2022-09-03T01:32:11.368Z,100.00
2022-09-03T01:34:54.233Z,100.00
2022-09-03T01:37:36.575Z,100.00
2022-09-03T01:40:12.778Z,100.00
2022-09-03T01:42:52.696Z,100.00
2022-09-03T01:45:46.762Z,100.00
2022-09-03T01:48:35.168Z,100.00
2022-09-03T01:51:11.230Z,100.00
2022-09-03T01:53:56.662Z,100.00
2022-09-03T01:56:32.177Z,100.00
2022-09-03T01:59:05.620Z,100.00
2022-09-03T02:01:40.411Z,100.00
2022-09-03T02:04:17.112Z,100.00
2022-09-03T02:06:45.312Z,100.00
2022-09-03T02:09:12.636Z,100.00
2022-09-03T02:11:40.640Z,100.00
2022-09-03T02:14:08.165Z,100.00
2022-09-03T02:16:38.156Z,100.00
2022-09-03T02:19:10.885Z,100.00
2022-09-03T02:21:40.954Z,100.00
2022-09-03T02:24:09.141Z,100.00
2022-09-03T02:26:36.645Z,100.00
2022-09-03T02:29:04.489Z,100.00
2022-09-03T02:31:34.026Z,100.00
2022-09-03T02:34:03.043Z,100.00
2022-09-03T02:36:34.379Z,100.00
2022-09-03T02:39:01.979Z,100.00
2022-09-03T02:41:29.073Z,100.00
2022-09-03T02:44:02.708Z,100.00
2022-09-03T02:46:39.265Z,100.00
2022-09-03T02:49:08.970Z,100.00
2022-09-03T02:51:38.984Z,100.00
2022-09-03T02:54:06.570Z,100.00
2022-09-03T02:56:34.086Z,100.00
2022-09-03T02:59:02.197Z,100.00
2022-09-03T03:01:29.508Z,100.00
2022-09-03T03:03:59.872Z,100.00
2022-09-03T03:06:29.250Z,100.00
2022-09-03T03:08:56.805Z,100.00
2022-09-03T03:11:24.333Z,100.00
2022-09-03T03:13:52.210Z,100.00
2022-09-03T03:16:19.778Z,100.00
2022-09-03T03:18:47.809Z,100.00
2022-09-03T03:21:17.598Z,100.00
2022-09-03T03:23:46.358Z,100.00
2022-09-03T03:26:16.250Z,100.00
2022-09-03T03:28:44.147Z,100.00
2022-09-03T03:31:13.782Z,100.00
2022-09-03T03:33:41.745Z,100.00
2022-09-03T03:36:11.717Z,100.00
2022-09-03T03:38:40.811Z,100.00
2022-09-03T03:41:13.153Z,100.00
2022-09-03T03:43:40.638Z,100.00
2022-09-03T03:46:08.453Z,100.00
2022-09-03T03:48:36.668Z,100.00
2022-09-03T03:51:06.675Z,100.00
2022-09-03T03:53:35.467Z,100.00
2022-09-03T03:56:06.106Z,100.00
2022-09-03T03:58:35.172Z,100.00
2022-09-03T04:01:06.698Z,100.00
2022-09-03T04:03:34.498Z,100.00
2022-09-03T04:06:02.756Z,100.00
2022-09-03T04:08:30.547Z,100.00
2022-09-03T04:11:01.193Z,100.00
2022-09-03T04:13:29.791Z,100.00
2022-09-03T04:16:04.092Z,100.00
2022-09-03T04:18:33.147Z,100.00
2022-09-03T04:21:01.743Z,100.00
2022-09-03T04:23:28.797Z,100.00
2022-09-03T04:25:55.818Z,100.00
2022-09-03T04:28:25.108Z,100.00
2022-09-03T04:30:53.676Z,100.00
2022-09-03T04:33:25.778Z,100.00
2022-09-03T04:35:53.798Z,100.00
2022-09-03T04:38:21.161Z,100.00
2022-09-03T04:40:52.619Z,100.00
2022-09-03T04:43:20.469Z,100.00
2022-09-03T04:45:48.042Z,100.00
2022-09-03T04:48:15.824Z,100.00
2022-09-03T04:50:44.962Z,100.00
2022-09-03T04:53:12.790Z,100.00
2022-09-03T04:55:41.585Z,100.00
2022-09-03T04:58:09.043Z,100.00
2022-09-03T05:00:36.957Z,100.00
2022-09-03T05:03:04.436Z,100.00
2022-09-03T05:05:31.716Z,100.00
2022-09-03T05:08:01.371Z,100.00
2022-09-03T05:10:29.111Z,100.00
2022-09-03T05:13:00.903Z,100.00
2022-09-03T05:15:28.471Z,100.00
2022-09-03T05:17:58.929Z,100.00
2022-09-03T05:20:27.034Z,100.00
2022-09-03T05:22:54.602Z,100.00
2022-09-03T05:25:24.158Z,100.00
2022-09-03T05:27:51.391Z,100.00
2022-09-03T05:30:18.844Z,100.00
2022-09-03T05:32:46.233Z,100.00
2022-09-03T05:35:13.778Z,100.00
2022-09-03T05:37:41.923Z,100.00
2022-09-03T05:40:11.013Z,100.00
2022-09-03T05:42:41.928Z,100.00
2022-09-03T05:45:10.716Z,100.00
2022-09-03T05:47:39.661Z,100.00
2022-09-03T05:50:10.111Z,100.00
2022-09-03T05:52:37.493Z,100.00
2022-09-03T05:55:05.745Z,100.00
2022-09-03T05:57:33.417Z,100.00
2022-09-03T06:00:03.332Z,100.00
2022-09-03T06:02:31.030Z,100.00
2022-09-03T06:04:58.714Z,100.00
2022-09-03T06:07:26.255Z,100.00
2022-09-03T06:09:53.267Z,100.00
2022-09-03T06:12:20.668Z,100.00
2022-09-03T06:14:48.184Z,100.00
2022-09-03T06:17:17.314Z,100.00
2022-09-03T06:19:44.490Z,100.00
2022-09-03T06:22:12.232Z,100.00
2022-09-03T06:24:39.913Z,100.00
2022-09-03T06:27:07.360Z,100.00
2022-09-03T06:29:35.243Z,100.00
2022-09-03T06:32:02.727Z,100.00
2022-09-03T06:34:32.418Z,100.00
2022-09-03T06:36:59.488Z,100.00
2022-09-03T06:39:26.911Z,100.00
2022-09-03T06:41:54.400Z,100.00
2022-09-03T06:44:22.377Z,100.00
2022-09-03T06:46:49.770Z,100.00
2022-09-03T06:49:16.938Z,100.00
2022-09-03T06:51:46.068Z,100.00
2022-09-03T06:54:13.469Z,100.00
2022-09-03T06:56:41.927Z,100.00
2022-09-03T06:59:11.523Z,100.00
2022-09-03T07:01:39.481Z,100.00
2022-09-03T07:04:07.877Z,100.00
2022-09-03T07:06:37.343Z,100.00
2022-09-03T07:09:07.047Z,100.00
2022-09-03T07:11:34.884Z,100.00
2022-09-03T07:14:03.776Z,100.00
2022-09-03T07:16:34.968Z,100.00
2022-09-03T07:19:03.056Z,100.00
2022-09-03T07:21:32.347Z,100.00
2022-09-03T07:23:59.520Z,100.00
2022-09-03T07:26:30.502Z,100.00
2022-09-03T07:28:58.505Z,100.00
2022-09-03T07:31:28.579Z,100.00
2022-09-03T07:33:56.119Z,100.00
2022-09-03T07:36:25.138Z,100.00
2022-09-03T07:38:56.236Z,100.00
2022-09-03T07:41:28.553Z,100.00
2022-09-03T07:43:58.244Z,100.00
2022-09-03T07:46:26.817Z,100.00
2022-09-03T07:48:55.679Z,100.00
2022-09-03T07:51:25.266Z,100.00
2022-09-03T07:53:55.055Z,100.00
2022-09-03T07:56:22.542Z,100.00
2022-09-03T07:58:50.093Z,100.00
2022-09-03T08:01:20.679Z,100.00
2022-09-03T08:03:49.965Z,100.00
2022-09-03T08:06:19.644Z,100.00
2022-09-03T08:08:46.864Z,100.00
2022-09-03T08:11:16.324Z,100.00
2022-09-03T08:13:45.072Z,100.00
2022-09-03T08:16:13.314Z,100.00
2022-09-03T08:18:42.423Z,100.00
2022-09-03T08:21:11.707Z,100.00
2022-09-03T08:23:40.093Z,100.00
2022-09-03T08:26:07.659Z,100.00
2022-09-03T08:28:35.376Z,100.00
2022-09-03T08:31:07.047Z,100.00
2022-09-03T08:33:34.853Z,100.00
2022-09-03T08:36:04.596Z,100.00
2022-09-03T08:38:32.579Z,100.00
2022-09-03T08:41:12.033Z,100.00
2022-09-03T08:44:08.764Z,100.00
2022-09-03T08:46:48.283Z,100.00
2022-09-03T08:49:21.254Z,100.00
2022-09-03T08:51:53.161Z,100.00
2022-09-03T08:54:24.481Z,100.00
2022-09-03T08:56:51.440Z,100.00
2022-09-03T08:59:18.903Z,100.00
2022-09-03T09:01:56.122Z,100.00
2022-09-03T09:04:38.869Z,100.00
2022-09-03T09:07:13.439Z,100.00
2022-09-03T09:09:47.360Z,100.00
2022-09-03T09:12:28.641Z,100.00
2022-09-03T09:15:07.363Z,100.00
2022-09-03T09:17:54.608Z,100.00
2022-09-03T09:20:29.896Z,100.00
2022-09-03T09:23:03.574Z,100.00
2022-09-03T09:25:32.004Z,100.00
2022-09-03T09:28:02.602Z,100.00
2022-09-03T09:30:31.857Z,100.00
2022-09-03T09:32:59.911Z,100.00
2022-09-03T09:35:27.846Z,100.00
2022-09-03T09:37:56.925Z,99.30
2022-09-03T09:40:29.278Z,97.97
2022-09-03T09:43:05.082Z,98.34
2022-09-03T09:45:32.620Z,97.69
2022-09-03T09:48:01.832Z,100.00
2022-09-03T09:50:28.872Z,100.00
2022-09-03T09:53:03.306Z,100.00
2022-09-03T09:55:32.103Z,94.51
2022-09-03T09:58:07.438Z,93.00
2022-09-03T10:00:37.303Z,93.67
2022-09-03T10:03:11.518Z,95.27
2022-09-03T10:05:39.841Z,93.13
2022-09-03T10:08:20.319Z,92.23
2022-09-03T10:10:50.719Z,91.26
2022-09-03T10:13:21.758Z,91.45
2022-09-03T10:15:54.848Z,94.89
2022-09-03T10:18:30.700Z,91.99
2022-09-03T10:21:05.084Z,93.81
2022-09-03T10:23:40.650Z,94.75
2022-09-03T10:26:13.920Z,93.50
2022-09-03T10:28:42.973Z,95.28
2022-09-03T10:31:32.104Z,96.75
2022-09-03T10:34:06.864Z,96.72
2022-09-03T10:36:43.037Z,91.72
2022-09-03T10:39:15.656Z,90.44
2022-09-03T10:41:58.221Z,85.96
2022-09-03T10:44:55.208Z,85.71
2022-09-03T10:47:37.756Z,85.09
2022-09-03T10:50:14.580Z,84.98
2022-09-03T10:53:03.550Z,84.29
2022-09-03T10:55:40.436Z,88.55
2022-09-03T10:58:25.285Z,85.93
2022-09-03T11:00:59.482Z,86.65
2022-09-03T11:03:44.162Z,86.77
2022-09-03T11:06:15.906Z,84.88
2022-09-03T11:08:49.097Z,83.24
2022-09-03T11:11:19.604Z,84.61
2022-09-03T11:13:52.205Z,84.61
2022-09-03T11:16:23.506Z,86.26
2022-09-03T11:18:56.325Z,87.84
2022-09-03T11:21:28.533Z,89.21
2022-09-03T11:24:05.933Z,85.71
2022-09-03T11:26:34.257Z,81.71
2022-09-03T11:29:10.258Z,82.02
2022-09-03T11:31:50.864Z,79.26
2022-09-03T11:34:31.887Z,78.96
2022-09-03T11:37:20.210Z,77.49
2022-09-03T11:39:56.577Z,79.76
2022-09-03T11:42:31.530Z,79.61
2022-09-03T11:45:22.083Z,77.07
2022-09-03T11:47:50.863Z,75.32
2022-09-03T11:50:22.111Z,77.02
2022-09-03T11:52:51.028Z,76.98
2022-09-03T11:55:33.667Z,78.94
2022-09-03T11:58:13.589Z,81.64
2022-09-03T12:00:43.591Z,76.59
2022-09-03T12:03:16.055Z,81.84
2022-09-03T12:05:52.774Z,80.06
2022-09-03T12:08:45.531Z,77.64
2022-09-03T12:11:29.871Z,77.13
2022-09-03T12:14:09.374Z,74.18
2022-09-03T12:17:17.815Z,75.49
2022-09-03T12:19:52.147Z,74.50
2022-09-03T12:22:21.335Z,73.75
2022-09-03T12:24:49.136Z,72.98
2022-09-03T12:27:20.851Z,74.15
2022-09-03T12:29:54.381Z,74.20
2022-09-03T12:32:24.358Z,69.96
2022-09-03T12:34:51.723Z,72.15
2022-09-03T12:38:04.474Z,70.82
2022-09-03T12:40:18.958Z,66.79
2022-09-03T12:42:46.287Z,72.57
2022-09-03T12:45:14.747Z,73.86
2022-09-03T12:47:44.666Z,71.48
2022-09-03T12:50:16.642Z,72.62
2022-09-03T12:52:47.532Z,73.07
2022-09-03T12:55:27.693Z,71.89
2022-09-03T12:58:02.515Z,68.75
2022-09-03T13:00:33.127Z,69.93
2022-09-03T13:03:06.961Z,70.32
2022-09-03T13:05:37.284Z,69.27
2022-09-03T13:08:10.761Z,69.26
2022-09-03T13:10:40.540Z,67.76
2022-09-03T13:13:22.171Z,68.38
2022-09-03T13:16:27.514Z,68.68
2022-09-03T13:19:02.272Z,72.23
2022-09-03T13:21:41.962Z,68.74
2022-09-03T13:24:25.150Z,67.05
2022-09-03T13:27:06.556Z,66.23
2022-09-03T13:29:59.453Z,71.61
2022-09-03T13:32:34.920Z,71.38
2022-09-03T13:35:11.175Z,68.90
2022-09-03T13:37:43.548Z,68.94
2022-09-03T13:40:17.329Z,67.09
2022-09-03T13:42:53.395Z,65.35
2022-09-03T13:45:29.847Z,66.61
2022-09-03T13:48:02.670Z,63.18
2022-09-03T13:50:39.792Z,62.17
2022-09-03T13:53:13.761Z,63.81
2022-09-03T13:55:46.420Z,64.98
2022-09-03T13:58:25.093Z,62.97
2022-09-03T14:01:11.850Z,65.69
2022-09-03T14:03:48.713Z,61.80
2022-09-03T14:06:30.391Z,62.58
2022-09-03T14:09:10.183Z,59.94
2022-09-03T14:11:49.020Z,60.01
2022-09-03T14:14:29.894Z,63.74
2022-09-03T14:17:02.452Z,59.92
2022-09-03T14:19:40.326Z,60.26
2022-09-03T14:22:16.049Z,61.97
2022-09-03T14:24:50.209Z,62.44
2022-09-03T14:27:25.436Z,64.19
2022-09-03T14:29:59.195Z,63.83
2022-09-03T14:32:34.774Z,62.71
2022-09-03T14:35:24.289Z,63.81
2022-09-03T14:38:21.555Z,63.44
2022-09-03T14:41:04.412Z,64.24
2022-09-03T14:44:04.399Z,65.29
2022-09-03T14:46:41.136Z,65.07
2022-09-03T14:49:22.090Z,64.86
2022-09-03T14:52:02.711Z,62.48
2022-09-03T14:54:59.356Z,62.67
2022-09-03T14:57:54.084Z,61.86
2022-09-03T15:00:23.161Z,64.33
2022-09-03T15:03:30.360Z,65.92
2022-09-03T15:06:11.988Z,63.42
2022-09-03T15:08:55.085Z,61.58
2022-09-03T15:11:26.911Z,64.03
2022-09-03T15:14:03.401Z,64.29
2022-09-03T15:16:44.086Z,64.85
2022-09-03T15:19:19.808Z,64.17
2022-09-03T15:22:02.735Z,66.32
2022-09-03T15:24:41.114Z,67.39
2022-09-03T15:27:40.002Z,66.75
2022-09-03T15:30:10.227Z,66.52
2022-09-03T15:32:49.125Z,63.66
2022-09-03T15:35:32.646Z,67.34
2022-09-03T15:38:03.071Z,66.45
2022-09-03T15:40:33.440Z,66.04
2022-09-03T15:43:07.692Z,64.94
2022-09-03T15:45:39.420Z,66.92
2022-09-03T15:48:17.759Z,65.48
2022-09-03T15:51:06.112Z,67.61
2022-09-03T15:53:38.070Z,67.69
2022-09-03T15:56:16.575Z,68.07
2022-09-03T15:58:53.612Z,70.12
2022-09-03T16:01:28.053Z,69.72
2022-09-03T16:04:05.693Z,71.00
2022-09-03T16:06:44.740Z,70.59
2022-09-03T16:09:25.585Z,70.15
2022-09-03T16:11:59.520Z,70.73
2022-09-03T16:14:35.059Z,72.40
2022-09-03T16:17:13.792Z,73.74
2022-09-03T16:19:48.185Z,74.50
2022-09-03T16:22:26.720Z,75.92
2022-09-03T16:25:00.331Z,76.38
2022-09-03T16:27:32.385Z,77.65
2022-09-03T16:30:09.756Z,80.86
2022-09-03T16:32:54.252Z,78.76
2022-09-03T16:35:34.232Z,78.96
2022-09-03T16:38:20.352Z,81.90
2022-09-03T16:40:55.567Z,80.19
2022-09-03T16:43:42.788Z,76.42
2022-09-03T16:46:23.193Z,77.47
2022-09-03T16:49:03.395Z,75.93
2022-09-03T16:51:38.387Z,74.86
2022-09-03T16:54:25.794Z,75.07
2022-09-03T16:57:08.655Z,76.99
2022-09-03T17:00:07.847Z,76.03
2022-09-03T17:03:05.450Z,77.98
2022-09-03T17:06:15.834Z,78.60
2022-09-03T17:08:50.726Z,81.65
2022-09-03T17:11:39.039Z,81.34
2022-09-03T17:14:22.640Z,84.18
2022-09-03T17:16:57.833Z,82.79
2022-09-03T17:19:27.396Z,83.41
2022-09-03T17:22:09.431Z,85.76
2022-09-03T17:24:41.740Z,89.24
2022-09-03T17:27:26.546Z,87.83
2022-09-03T17:30:07.529Z,90.27
2022-09-03T17:33:06.086Z,90.54
2022-09-03T17:35:42.030Z,89.77
2022-09-03T17:38:29.069Z,91.87
2022-09-03T17:41:08.539Z,92.46
2022-09-03T17:43:45.094Z,95.14
2022-09-03T17:46:27.939Z,92.56
2022-09-03T17:48:59.030Z,91.52
2022-09-03T17:51:40.655Z,92.36
2022-09-03T17:54:17.015Z,92.66
2022-09-03T17:56:52.017Z,91.50
2022-09-03T17:59:36.788Z,94.99
2022-09-03T18:02:08.710Z,92.56
2022-09-03T18:04:46.915Z,94.73
2022-09-03T18:07:22.736Z,93.60
2022-09-03T18:10:02.173Z,93.17
2022-09-03T18:12:38.893Z,95.33
2022-09-03T18:15:13.759Z,97.77
2022-09-03T18:17:49.074Z,98.87
2022-09-03T18:20:15.975Z,100.00
2022-09-03T18:22:50.353Z,100.00
2022-09-03T18:25:22.751Z,100.00
2022-09-03T18:27:56.916Z,100.00
2022-09-03T18:30:25.063Z,100.00
2022-09-03T18:32:53.417Z,100.00
2022-09-03T18:35:21.771Z,100.00
2022-09-03T18:37:49.396Z,100.00
2022-09-03T18:40:25.097Z,100.00
2022-09-03T18:43:04.895Z,100.00
2022-09-03T18:46:22.351Z,100.00
2022-09-03T18:48:37.883Z,100.00
2022-09-03T18:51:14.880Z,100.00
2022-09-03T18:53:50.685Z,100.00
2022-09-03T18:56:32.973Z,100.00
2022-09-03T18:59:19.703Z,100.00
2022-09-03T19:01:48.581Z,100.00
2022-09-03T19:04:25.215Z,100.00
2022-09-03T19:07:03.375Z,100.00
2022-09-03T19:09:42.728Z,100.00
2022-09-03T19:12:25.860Z,100.00
2022-09-03T19:14:59.816Z,100.00
2022-09-03T19:17:36.610Z,100.00
2022-09-03T19:20:10.409Z,100.00
2022-09-03T19:22:40.292Z,100.00
2022-09-03T19:25:12.813Z,100.00
2022-09-03T19:27:59.906Z,100.00
2022-09-03T19:30:34.353Z,100.00
2022-09-03T19:33:17.222Z,100.00
2022-09-03T19:35:53.153Z,100.00
2022-09-03T19:38:34.547Z,100.00
2022-09-03T19:41:14.501Z,100.00
2022-09-03T19:43:59.930Z,100.00
2022-09-03T19:46:35.446Z,100.00
2022-09-03T19:49:16.631Z,100.00
2022-09-03T19:51:52.795Z,100.00
2022-09-03T19:54:28.203Z,100.00
2022-09-03T19:56:59.257Z,100.00
2022-09-03T19:59:34.470Z,100.00
2022-09-03T20:02:01.829Z,100.00
2022-09-03T20:04:32.625Z,100.00
2022-09-03T20:07:03.983Z,100.00
2022-09-03T20:09:35.609Z,100.00
2022-09-03T20:12:10.060Z,100.00
2022-09-03T20:14:39.752Z,100.00
2022-09-03T20:17:18.029Z,100.00
2022-09-03T20:19:58.280Z,100.00
2022-09-03T20:22:31.362Z,100.00
2022-09-03T20:25:17.133Z,100.00
2022-09-03T20:27:53.413Z,100.00
2022-09-03T20:30:32.870Z,100.00
2022-09-03T20:33:27.120Z,100.00
2022-09-03T20:36:07.705Z,100.00
2022-09-03T20:39:20.904Z,100.00
2022-09-03T20:41:55.727Z,100.00
2022-09-03T20:44:43.567Z,100.00
2022-09-03T20:47:30.150Z,100.00
2022-09-03T20:50:03.755Z,100.00
2022-09-03T20:52:41.758Z,100.00
2022-09-03T20:55:16.445Z,100.00
2022-09-03T20:57:54.097Z,100.00
2022-09-03T21:00:22.218Z,100.00
2022-09-03T21:03:12.822Z,100.00
2022-09-03T21:05:48.331Z,100.00
2022-09-03T21:08:21.276Z,100.00
2022-09-03T21:10:54.336Z,100.00
2022-09-03T21:13:31.989Z,100.00
2022-09-03T21:16:20.400Z,100.00
2022-09-03T21:18:59.174Z,100.00
2022-09-03T21:21:39.718Z,100.00
2022-09-03T21:24:15.029Z,100.00
2022-09-03T21:26:46.115Z,100.00
2022-09-03T21:29:22.267Z,100.00
2022-09-03T21:31:55.060Z,100.00
2022-09-03T21:34:30.581Z,100.00
2022-09-03T21:36:57.638Z,100.00
2022-09-03T21:39:28.848Z,100.00
2022-09-03T21:42:01.895Z,100.00
2022-09-03T21:44:46.819Z,100.00
2022-09-03T21:47:16.023Z,100.00
2022-09-03T21:49:57.873Z,100.00
2022-09-03T21:52:34.223Z,100.00
2022-09-03T21:55:03.283Z,100.00
2022-09-03T21:57:34.846Z,100.00
2022-09-03T22:00:14.784Z,100.00
2022-09-03T22:02:42.382Z,100.00
2022-09-03T22:05:11.179Z,100.00
2022-09-03T22:07:53.809Z,100.00
2022-09-03T22:10:26.854Z,100.00
2022-09-03T22:13:05.486Z,100.00
2022-09-03T22:15:33.381Z,100.00
2022-09-03T22:18:06.660Z,100.00
2022-09-03T22:20:37.269Z,100.00
2022-09-03T22:23:12.511Z,100.00
2022-09-03T22:25:48.323Z,100.00
2022-09-03T22:28:24.579Z,100.00
2022-09-03T22:31:02.034Z,100.00
2022-09-03T22:33:36.344Z,100.00
2022-09-03T22:36:14.236Z,100.00
2022-09-03T22:38:54.563Z,100.00
2022-09-03T22:41:42.671Z,100.00
2022-09-03T22:44:22.872Z,100.00
2022-09-03T22:47:00.313Z,100.00
2022-09-03T22:49:38.160Z,100.00
2022-09-03T22:52:22.581Z,100.00
2022-09-03T22:55:07.449Z,100.00
2022-09-03T22:57:43.245Z,100.00
2022-09-03T23:00:12.343Z,100.00
2022-09-03T23:02:41.904Z,100.00
2022-09-03T23:05:17.645Z,100.00
2022-09-03T23:07:53.084Z,100.00
2022-09-03T23:10:26.363Z,100.00
2022-09-03T23:13:04.825Z,100.00
2022-09-03T23:15:36.177Z,100.00
2022-09-03T23:18:08.479Z,100.00
2022-09-03T23:20:40.173Z,100.00
2022-09-03T23:23:19.527Z,100.00
2022-09-03T23:25:51.848Z,100.00
2022-09-03T23:28:24.559Z,100.00
2022-09-03T23:30:52.378Z,100.00
2022-09-03T23:33:19.318Z,100.00
2022-09-03T23:35:54.729Z,100.00
2022-09-03T23:38:27.394Z,100.00
2022-09-03T23:40:58.701Z,100.00
2022-09-03T23:44:01.888Z,100.00
2022-09-03T23:46:39.205Z,100.00
2022-09-03T23:49:23.345Z,100.00
2022-09-03T23:52:05.218Z,100.00
2022-09-03T23:54:39.202Z,100.00
2022-09-03T23:57:14.910Z,100.00
2022-09-03T23:59:58.224Z,100.00
